createdAt,value
2017-10-20T00:02:13.118Z,25.88
2017-10-20T00:04:40.751Z,21.95
2017-10-20T00:07:08.427Z,23.23
2017-10-20T00:09:36.026Z,31.80
2017-10-20T00:12:03.694Z,20.62
2017-10-20T00:14:31.298Z,18.55
2017-10-20T00:16:58.912Z,18.80
2017-10-20T00:19:26.544Z,15.88
2017-10-20T00:21:54.172Z,15.38
2017-10-20T00:24:21.834Z,24.30
2017-10-20T00:26:50.190Z,18.50
2017-10-20T00:29:18.611Z,18.17
2017-10-20T00:31:46.995Z,27.60
2017-10-20T00:34:14.603Z,27.70
2017-10-20T00:36:42.221Z,21.33
2017-10-20T00:39:09.824Z,20.85
2017-10-20T00:41:37.457Z,17.62
2017-10-20T00:44:05.068Z,18.60
2017-10-20T00:46:32.691Z,25.75
2017-10-20T00:49:00.364Z,18.87
2017-10-20T00:51:28.051Z,22.80
2017-10-20T00:53:55.656Z,23.90
2017-10-20T00:56:23.296Z,18.37
2017-10-20T00:58:51.722Z,18.33
2017-10-20T01:01:19.303Z,27.75
2017-10-20T01:03:46.950Z,25.23
2017-10-20T01:06:14.522Z,20.42
2017-10-20T01:08:42.126Z,16.05
2017-10-20T01:11:09.763Z,18.33
2017-10-20T01:13:37.376Z,19.80
2017-10-20T01:16:04.999Z,23.38
2017-10-20T01:18:32.645Z,16.60
2017-10-20T01:21:00.300Z,21.55
2017-10-20T01:23:27.910Z,17.37
2017-10-20T01:25:55.679Z,18.67
2017-10-20T01:28:23.304Z,15.10
2017-10-20T01:30:51.722Z,23.58
2017-10-20T01:33:19.407Z,18.50
2017-10-20T01:35:46.997Z,37.78
2017-10-20T01:38:14.603Z,23.98
2017-10-20T01:40:42.239Z,22.33
2017-10-20T01:43:09.847Z,24.10
2017-10-20T01:45:37.496Z,21.55
2017-10-20T01:48:05.082Z,26.45
2017-10-20T01:50:32.676Z,17.77
2017-10-20T01:53:00.321Z,16.70
2017-10-20T01:55:27.995Z,29.55
2017-10-20T01:57:55.642Z,28.73
2017-10-20T02:00:23.230Z,24.37
2017-10-20T02:02:51.634Z,22.62
2017-10-20T02:05:19.242Z,34.05
2017-10-20T02:07:46.844Z,29.87
2017-10-20T02:10:15.286Z,22.87
2017-10-20T02:12:42.883Z,21.12
2017-10-20T02:15:11.255Z,21.60
2017-10-20T02:17:39.683Z,20.85
2017-10-20T02:20:07.288Z,17.70
2017-10-20T02:22:34.901Z,26.62
2017-10-20T02:25:02.615Z,24.48
2017-10-20T02:27:30.197Z,23.65
2017-10-20T02:29:58.579Z,24.87
2017-10-20T02:32:26.992Z,22.42
2017-10-20T02:34:54.584Z,24.63
2017-10-20T02:37:22.177Z,36.03
2017-10-20T02:39:50.609Z,22.37
2017-10-20T02:42:18.204Z,20.02
2017-10-20T02:44:46.656Z,15.60
2017-10-20T02:47:14.369Z,51.25
2017-10-20T02:49:42.011Z,16.62
2017-10-20T02:52:09.657Z,13.75
2017-10-20T02:54:37.274Z,38.67
2017-10-20T02:57:05.783Z,17.55
2017-10-20T02:59:33.418Z,24.98
2017-10-20T03:02:03.514Z,21.05
2017-10-20T03:04:31.136Z,21.55
2017-10-20T03:06:58.723Z,13.02
2017-10-20T03:09:26.363Z,14.35
2017-10-20T03:11:53.972Z,16.70
2017-10-20T03:14:21.708Z,18.98
2017-10-20T03:16:49.307Z,18.12
2017-10-20T03:19:16.892Z,23.40
2017-10-20T03:21:44.659Z,17.70
2017-10-20T03:24:12.277Z,15.77
2017-10-20T03:26:40.669Z,13.93
2017-10-20T03:29:08.288Z,19.02
2017-10-20T03:31:35.890Z,20.58
2017-10-20T03:34:04.284Z,18.60
2017-10-20T03:36:31.872Z,16.42
2017-10-20T03:38:59.521Z,15.73
2017-10-20T03:41:27.156Z,16.73
2017-10-20T03:43:54.752Z,21.12
2017-10-20T03:46:22.389Z,19.85
2017-10-20T03:48:50.003Z,21.20
2017-10-20T03:51:17.645Z,21.48
2017-10-20T03:53:45.237Z,17.75
2017-10-20T03:56:12.888Z,19.42
2017-10-20T03:58:40.500Z,17.15
2017-10-20T04:01:08.163Z,20.25
2017-10-20T04:03:35.819Z,25.88
2017-10-20T04:06:03.419Z,16.98
2017-10-20T04:08:31.068Z,16.17
2017-10-20T04:10:58.651Z,22.90
2017-10-20T04:16:01.734Z,15.57
2017-10-20T04:18:29.338Z,25.25
2017-10-20T04:20:56.926Z,22.15
2017-10-20T04:23:24.547Z,20.12
2017-10-20T04:25:52.193Z,23.90
2017-10-20T04:28:20.547Z,18.90
2017-10-20T04:30:48.109Z,21.35
2017-10-20T04:33:15.708Z,27.77
2017-10-20T04:35:43.290Z,29.50
2017-10-20T04:38:10.927Z,27.13
2017-10-20T04:40:38.493Z,28.02
2017-10-20T04:43:06.070Z,52.90
2017-10-20T04:45:33.676Z,28.05
2017-10-20T04:48:01.250Z,29.50
2017-10-20T04:50:29.636Z,30.30
2017-10-20T04:52:57.985Z,29.15
2017-10-20T04:55:25.616Z,23.00
2017-10-20T04:57:53.218Z,27.90
2017-10-20T05:00:20.787Z,31.58
2017-10-20T05:02:49.179Z,26.23
2017-10-20T05:05:17.528Z,28.98
2017-10-20T05:07:45.154Z,28.23
2017-10-20T05:10:12.762Z,24.02
2017-10-20T05:12:41.162Z,36.08
2017-10-20T05:15:09.512Z,29.00
2017-10-20T05:17:37.130Z,34.92
2017-10-20T05:20:04.707Z,28.02
2017-10-20T05:22:32.278Z,28.33
2017-10-20T05:24:59.878Z,26.42
2017-10-20T05:27:28.228Z,34.67
2017-10-20T05:29:55.845Z,28.25
2017-10-20T05:32:23.462Z,29.83
2017-10-20T05:34:51.102Z,37.33
2017-10-20T05:37:18.735Z,24.90
2017-10-20T05:39:46.311Z,35.30
2017-10-20T05:42:13.923Z,35.17
2017-10-20T05:44:42.286Z,28.52
2017-10-20T05:47:09.936Z,27.35
2017-10-20T05:49:37.519Z,31.02
2017-10-20T05:52:05.144Z,26.87
2017-10-20T05:54:32.770Z,21.50
2017-10-20T05:57:00.355Z,30.80
2017-10-20T05:59:27.945Z,29.95
2017-10-20T06:01:55.560Z,22.70
2017-10-20T06:04:23.134Z,23.25
2017-10-20T06:06:50.744Z,31.15
2017-10-20T06:09:18.318Z,37.35
2017-10-20T06:11:46.693Z,27.52
2017-10-20T06:14:15.026Z,27.75
2017-10-20T06:16:42.599Z,30.73
2017-10-20T06:19:10.215Z,30.23
2017-10-20T06:21:38.214Z,31.05
2017-10-20T06:24:06.610Z,25.62
2017-10-20T06:26:34.234Z,28.30
2017-10-20T06:29:01.853Z,51.53
2017-10-20T06:31:30.267Z,23.38
2017-10-20T06:33:57.856Z,29.92
2017-10-20T06:36:25.443Z,22.75
2017-10-20T06:38:53.072Z,33.35
2017-10-20T06:41:20.672Z,40.20
2017-10-20T06:43:48.467Z,38.40
2017-10-20T06:46:16.225Z,28.67
2017-10-20T06:48:44.043Z,46.70
2017-10-20T06:51:11.785Z,34.00
2017-10-20T06:53:39.584Z,29.05
2017-10-20T06:56:07.318Z,31.15
2017-10-20T06:58:35.376Z,44.47
2017-10-20T07:01:09.523Z,29.02
2017-10-20T07:03:37.375Z,30.62
2017-10-20T07:06:04.970Z,29.77
2017-10-20T07:08:32.623Z,31.87
2017-10-20T07:11:00.311Z,41.40
2017-10-20T07:13:28.788Z,46.45
2017-10-20T07:15:56.690Z,42.83
2017-10-20T07:18:25.273Z,39.35
2017-10-20T07:21:04.790Z,53.05
2017-10-20T07:23:32.394Z,31.83
2017-10-20T07:26:01.995Z,34.92
2017-10-20T07:28:29.577Z,28.98
2017-10-20T07:30:57.159Z,40.42
2017-10-20T07:33:24.784Z,41.92
2017-10-20T07:35:52.347Z,39.13
2017-10-20T07:38:20.017Z,42.30
2017-10-20T07:40:47.619Z,42.17
2017-10-20T07:43:15.245Z,51.17
2017-10-20T07:45:42.937Z,42.90
2017-10-20T07:48:10.546Z,33.85
2017-10-20T07:50:38.935Z,40.17
2017-10-20T07:53:06.550Z,37.17
2017-10-20T07:55:34.128Z,36.03
2017-10-20T07:58:02.544Z,39.60
2017-10-20T08:00:30.138Z,40.97
2017-10-20T08:02:57.782Z,38.15
2017-10-20T08:05:25.379Z,33.33
2017-10-20T08:07:53.814Z,31.00
2017-10-20T08:10:21.406Z,52.85
2017-10-20T08:12:49.106Z,39.10
2017-10-20T08:15:16.770Z,34.90
2017-10-20T08:17:44.410Z,45.03
2017-10-20T08:20:12.821Z,46.42
2017-10-20T08:22:40.438Z,35.53
2017-10-20T08:25:08.836Z,42.53
2017-10-20T08:27:36.475Z,27.83
2017-10-20T08:30:04.137Z,30.33
2017-10-20T08:32:32.635Z,36.78
2017-10-20T08:35:01.016Z,38.40
2017-10-20T08:37:28.659Z,46.37
2017-10-20T08:39:56.291Z,38.13
2017-10-20T08:42:23.959Z,39.55
2017-10-20T08:44:51.641Z,31.67
2017-10-20T08:47:19.579Z,43.00
2017-10-20T08:49:57.161Z,36.40
2017-10-20T08:52:36.239Z,33.25
2017-10-20T08:55:08.975Z,32.60
2017-10-20T08:57:36.599Z,37.78
2017-10-20T09:00:04.183Z,35.67
2017-10-20T09:02:31.820Z,40.93
2017-10-20T09:05:00.744Z,37.70
2017-10-20T09:07:28.388Z,35.70
2017-10-20T09:09:56.053Z,33.70
2017-10-20T09:12:24.411Z,37.63
2017-10-20T09:14:52.005Z,43.13
2017-10-20T09:17:20.398Z,33.33
2017-10-20T09:19:47.983Z,39.03
2017-10-20T09:22:15.595Z,36.03
2017-10-20T09:24:43.248Z,39.50
2017-10-20T09:27:10.970Z,48.70
2017-10-20T09:29:38.738Z,39.30
2017-10-20T09:32:06.524Z,49.93
2017-10-20T09:34:34.956Z,45.00
2017-10-20T09:37:02.556Z,40.20
2017-10-20T09:39:30.204Z,27.23
2017-10-20T09:41:58.047Z,29.50
2017-10-20T09:44:26.510Z,31.37
2017-10-20T09:47:03.115Z,21.80
2017-10-20T09:49:34.739Z,27.20
2017-10-20T09:52:03.098Z,32.67
2017-10-20T09:54:31.615Z,69.83
2017-10-20T09:56:59.274Z,43.00
2017-10-20T09:59:26.839Z,35.40
2017-10-20T10:01:54.462Z,29.30
2017-10-20T10:04:22.526Z,23.23
2017-10-20T10:06:52.337Z,34.77
2017-10-20T10:09:26.761Z,15.70
2017-10-20T10:11:56.050Z,17.17
2017-10-20T10:14:23.693Z,14.50
2017-10-20T10:16:51.443Z,17.27
2017-10-20T10:19:19.192Z,18.83
2017-10-20T10:21:49.900Z,16.37
2017-10-20T10:24:18.315Z,16.60
2017-10-20T10:26:46.193Z,20.73
2017-10-20T10:29:13.876Z,19.93
2017-10-20T10:31:41.492Z,23.40
2017-10-20T10:34:09.124Z,15.63
2017-10-20T10:36:36.734Z,18.80
2017-10-20T10:39:04.360Z,16.63
2017-10-20T10:41:31.946Z,23.10
2017-10-20T10:43:59.585Z,22.30
2017-10-20T10:46:27.195Z,15.87
2017-10-20T10:48:54.845Z,20.80
2017-10-20T10:51:23.188Z,13.33
2017-10-20T10:53:51.601Z,16.23
2017-10-20T10:56:19.210Z,11.77
2017-10-20T10:58:46.818Z,12.37
2017-10-20T11:01:14.445Z,12.23
2017-10-20T11:03:42.020Z,12.17
2017-10-20T11:06:22.202Z,11.90
2017-10-20T11:09:01.611Z,22.20
2017-10-20T11:11:41.847Z,17.43
2017-10-20T11:14:11.117Z,12.63
2017-10-20T11:16:38.893Z,25.97
2017-10-20T11:19:06.708Z,10.07
2017-10-20T11:21:34.476Z,16.37
2017-10-20T11:24:02.072Z,12.93
2017-10-20T11:26:29.708Z,14.53
2017-10-20T11:28:57.295Z,15.53
2017-10-20T11:31:25.005Z,22.20
2017-10-20T11:33:52.674Z,15.20
2017-10-20T11:36:21.111Z,20.03
2017-10-20T11:38:48.764Z,9.80
2017-10-20T11:41:16.418Z,15.73
2017-10-20T11:43:44.093Z,10.60
2017-10-20T11:46:11.697Z,18.60
2017-10-20T11:48:39.357Z,33.53
2017-10-20T11:51:06.947Z,16.27
2017-10-20T11:53:34.651Z,12.90
2017-10-20T11:56:02.295Z,12.13
2017-10-20T11:58:29.903Z,11.70
2017-10-20T12:00:58.342Z,7.27
2017-10-20T12:03:25.927Z,10.90
2017-10-20T12:05:53.546Z,11.83
2017-10-20T12:08:21.198Z,15.60
2017-10-20T12:10:48.816Z,7.83
2017-10-20T12:13:16.406Z,11.87
2017-10-20T12:15:44.874Z,8.50
2017-10-20T12:18:13.252Z,11.33
2017-10-20T12:20:40.878Z,12.60
2017-10-20T12:23:08.532Z,14.97
2017-10-20T12:25:36.228Z,13.83
2017-10-20T12:28:03.852Z,8.97
2017-10-20T12:30:31.804Z,10.63
2017-10-20T12:32:59.890Z,11.83
2017-10-20T12:35:27.512Z,12.23
2017-10-20T12:37:55.132Z,10.20
2017-10-20T12:40:22.794Z,12.03
2017-10-20T12:42:50.392Z,21.10
2017-10-20T12:45:18.834Z,10.50
2017-10-20T12:47:46.477Z,9.97
2017-10-20T12:50:14.055Z,9.93
2017-10-20T12:52:42.544Z,7.20
2017-10-20T12:55:10.356Z,9.40
2017-10-20T12:57:38.885Z,11.30
2017-10-20T13:00:06.467Z,8.57
2017-10-20T13:02:34.065Z,9.57
2017-10-20T13:05:02.546Z,9.63
2017-10-20T13:07:30.235Z,7.30
2017-10-20T13:09:58.004Z,11.13
2017-10-20T13:12:25.611Z,12.33
2017-10-20T13:14:53.262Z,5.83
2017-10-20T13:17:20.852Z,10.07
2017-10-20T13:19:48.470Z,7.50
2017-10-20T13:22:16.071Z,8.37
2017-10-20T13:24:44.525Z,4.77
2017-10-20T13:27:12.151Z,7.23
2017-10-20T13:29:39.742Z,6.30
2017-10-20T13:32:07.395Z,23.43
2017-10-20T13:34:35.043Z,9.93
2017-10-20T13:37:02.718Z,4.87
2017-10-20T13:39:30.320Z,5.70
2017-10-20T13:41:58.014Z,9.60
2017-10-20T13:44:25.644Z,4.70
2017-10-20T13:46:54.094Z,4.80
2017-10-20T13:49:21.683Z,6.20
2017-10-20T13:51:49.294Z,3.50
2017-10-20T13:54:16.918Z,5.40
2017-10-20T13:56:45.266Z,6.80
2017-10-20T13:59:12.903Z,3.90
2017-10-20T14:01:40.490Z,5.03
2017-10-20T14:04:08.511Z,6.67
2017-10-20T14:06:36.366Z,4.43
2017-10-20T14:09:04.924Z,4.43
2017-10-20T14:11:34.953Z,7.07
2017-10-20T14:14:04.203Z,3.93
2017-10-20T14:16:33.671Z,4.43
2017-10-20T14:19:03.232Z,7.03
2017-10-20T14:21:31.788Z,7.63
2017-10-20T14:24:01.072Z,10.07
2017-10-20T14:26:30.290Z,10.60
2017-10-20T14:29:00.054Z,8.43
2017-10-20T14:31:31.533Z,6.77
2017-10-20T14:34:00.855Z,25.87
2017-10-20T14:36:29.742Z,7.10
2017-10-20T14:38:58.012Z,10.07
2017-10-20T14:41:27.157Z,8.70
2017-10-20T14:43:55.365Z,6.00
2017-10-20T14:46:26.451Z,12.07
2017-10-20T14:48:54.803Z,6.20
2017-10-20T14:51:24.493Z,4.20
2017-10-20T14:53:53.846Z,7.27
2017-10-20T14:56:22.973Z,3.97
2017-10-20T14:58:52.169Z,3.97
2017-10-20T15:01:21.439Z,5.10
2017-10-20T15:03:50.555Z,5.70
2017-10-20T15:06:19.615Z,4.47
2017-10-20T15:08:50.701Z,4.90
2017-10-20T15:11:19.905Z,3.70
2017-10-20T15:13:50.291Z,18.87
2017-10-20T15:16:18.925Z,3.57
2017-10-20T15:18:47.593Z,8.52
2017-10-20T15:21:16.260Z,3.95
2017-10-20T15:23:45.123Z,3.70
2017-10-20T15:26:14.554Z,4.75
2017-10-20T15:28:44.000Z,8.40
2017-10-20T15:31:13.171Z,11.02
2017-10-20T15:33:40.775Z,10.07
2017-10-20T15:36:09.168Z,4.18
2017-10-20T15:38:36.817Z,4.20
2017-10-20T15:41:05.205Z,4.03
2017-10-20T15:43:32.818Z,3.20
2017-10-20T15:46:00.462Z,5.15
2017-10-20T15:48:28.060Z,3.70
2017-10-20T15:50:55.715Z,3.70
2017-10-20T15:53:23.309Z,5.10
2017-10-20T15:55:51.658Z,12.68
2017-10-20T15:58:19.291Z,5.12
2017-10-20T16:00:46.882Z,4.22
2017-10-20T16:03:14.528Z,8.00
2017-10-20T16:05:42.100Z,6.72
2017-10-20T16:08:12.604Z,11.95
2017-10-20T16:10:43.323Z,3.60
2017-10-20T16:13:12.982Z,5.28
2017-10-20T16:15:44.413Z,4.68
2017-10-20T16:18:15.066Z,4.10
2017-10-20T16:20:45.929Z,10.43
2017-10-20T16:23:16.612Z,8.65
2017-10-20T16:25:46.695Z,7.78
2017-10-20T16:28:16.525Z,3.80
2017-10-20T16:30:46.265Z,3.80
2017-10-20T16:33:15.348Z,12.50
2017-10-20T16:35:44.458Z,4.28
2017-10-20T16:38:14.174Z,8.50
2017-10-20T16:40:43.891Z,3.92
2017-10-20T16:43:13.855Z,4.25
2017-10-20T16:45:43.755Z,3.90
2017-10-20T16:48:14.461Z,3.92
2017-10-20T16:50:44.223Z,5.62
2017-10-20T16:53:13.896Z,7.22
2017-10-20T16:55:44.467Z,4.95
2017-10-20T16:58:14.171Z,5.25
2017-10-20T17:00:45.656Z,5.03
2017-10-20T17:03:16.054Z,5.15
2017-10-20T17:05:45.866Z,4.90
2017-10-20T17:08:15.580Z,6.60
2017-10-20T17:10:46.058Z,3.75
2017-10-20T17:13:15.920Z,3.92
2017-10-20T17:15:45.669Z,5.82
2017-10-20T17:18:16.461Z,4.75
2017-10-20T17:20:46.997Z,4.20
2017-10-20T17:23:16.815Z,5.18
2017-10-20T17:25:50.310Z,10.68
2017-10-20T17:28:21.538Z,4.43
2017-10-20T17:30:52.603Z,9.60
2017-10-20T17:33:22.250Z,5.97
2017-10-20T17:35:53.100Z,7.00
2017-10-20T17:38:23.629Z,4.95
2017-10-20T17:40:53.637Z,6.60
2017-10-20T17:43:24.375Z,9.23
2017-10-20T17:45:54.032Z,7.65
2017-10-20T17:48:24.007Z,4.62
2017-10-20T17:50:54.633Z,8.50
2017-10-20T17:53:24.261Z,6.10
2017-10-20T17:55:54.906Z,7.90
2017-10-20T17:58:23.855Z,6.25
2017-10-20T18:00:53.756Z,6.53
2017-10-20T18:03:23.228Z,6.05
2017-10-20T18:05:52.515Z,4.25
2017-10-20T18:08:22.147Z,3.97
2017-10-20T18:10:51.927Z,6.70
2017-10-20T18:13:22.462Z,4.00
2017-10-20T18:15:52.946Z,5.35
2017-10-20T18:18:22.717Z,7.95
2017-10-20T18:20:52.552Z,8.55
2017-10-20T18:23:21.968Z,7.87
2017-10-20T18:25:52.535Z,8.13
2017-10-20T18:28:22.765Z,3.30
2017-10-20T18:30:53.435Z,5.90
2017-10-20T18:33:23.155Z,5.85
2017-10-20T18:35:53.003Z,3.62
2017-10-20T18:38:23.771Z,4.78
2017-10-20T18:40:53.627Z,3.50
2017-10-20T18:43:24.914Z,4.43
2017-10-20T18:45:55.461Z,3.70
2017-10-20T18:48:25.157Z,3.30
2017-10-20T18:50:54.966Z,5.25
2017-10-20T18:53:24.453Z,3.20
2017-10-20T18:55:53.834Z,5.60
2017-10-20T18:58:22.822Z,15.15
2017-10-20T19:00:51.510Z,9.23
2017-10-20T19:03:20.285Z,4.62
2017-10-20T19:05:49.442Z,8.70
2017-10-20T19:08:19.245Z,5.72
2017-10-20T19:10:49.750Z,5.93
2017-10-20T19:13:19.144Z,4.55
2017-10-20T19:15:48.445Z,7.70
2017-10-20T19:18:17.439Z,9.30
2017-10-20T19:20:46.514Z,5.62
2017-10-20T19:23:16.891Z,7.00
2017-10-20T19:25:46.736Z,3.70
2017-10-20T19:28:16.530Z,5.35
2017-10-20T19:30:46.843Z,4.43
2017-10-20T19:33:14.966Z,5.03
2017-10-20T19:35:44.516Z,9.10
2017-10-20T19:38:13.402Z,4.10
2017-10-20T19:40:43.980Z,9.07
2017-10-20T19:43:13.520Z,4.43
2017-10-20T19:45:44.427Z,6.45
2017-10-20T19:48:14.027Z,12.70
2017-10-20T19:50:44.537Z,6.93
2017-10-20T19:53:13.834Z,26.65
2017-10-20T19:55:43.380Z,4.53
2017-10-20T19:58:12.932Z,3.70
2017-10-20T20:00:42.411Z,4.70
2017-10-20T20:03:13.226Z,5.18
2017-10-20T20:05:43.556Z,6.43
2017-10-20T20:08:12.810Z,6.90
2017-10-20T20:10:41.392Z,3.37
2017-10-20T20:13:10.770Z,6.40
2017-10-20T20:15:40.248Z,8.85
2017-10-20T20:18:09.786Z,5.62
2017-10-20T20:20:39.570Z,11.55
2017-10-20T20:23:08.926Z,9.50
2017-10-20T20:25:39.965Z,6.85
2017-10-20T20:28:09.488Z,7.15
2017-10-20T20:30:50.124Z,6.25
2017-10-20T20:33:20.172Z,8.02
2017-10-20T20:35:49.329Z,4.10
2017-10-20T20:38:19.084Z,6.87
2017-10-20T20:40:49.161Z,5.28
2017-10-20T20:43:18.183Z,6.18
2017-10-20T20:45:47.651Z,12.18
2017-10-20T20:48:17.376Z,5.22
2017-10-20T20:50:46.594Z,12.95
2017-10-20T20:53:25.071Z,3.55
2017-10-20T20:55:55.967Z,8.50
2017-10-20T20:58:26.112Z,3.12
2017-10-20T21:00:55.505Z,4.05
2017-10-20T21:03:25.851Z,5.82
2017-10-20T21:05:55.499Z,4.28
2017-10-20T21:08:25.255Z,4.85
2017-10-20T21:10:54.044Z,4.07
2017-10-20T21:13:23.624Z,4.20
2017-10-20T21:15:53.971Z,17.62
2017-10-20T21:18:22.807Z,10.68
2017-10-20T21:20:52.194Z,6.65
2017-10-20T21:23:21.773Z,3.78
2017-10-20T21:25:51.144Z,6.45
2017-10-20T21:28:21.453Z,20.60
2017-10-20T21:30:50.743Z,7.20
2017-10-20T21:33:20.421Z,6.30
2017-10-20T21:35:50.100Z,6.25
2017-10-20T21:38:19.491Z,4.37
2017-10-20T21:40:56.382Z,9.57
2017-10-20T21:43:25.816Z,13.90
2017-10-20T21:45:55.165Z,4.00
2017-10-20T21:48:24.805Z,8.35
2017-10-20T21:50:54.935Z,7.15
2017-10-20T21:53:25.586Z,7.93
2017-10-20T21:55:55.383Z,6.12
2017-10-20T21:58:24.723Z,8.85
2017-10-20T22:00:54.360Z,9.50
2017-10-20T22:03:23.859Z,6.68
2017-10-20T22:05:53.440Z,5.93
2017-10-20T22:08:22.849Z,8.35
2017-10-20T22:10:52.325Z,4.57
2017-10-20T22:13:21.905Z,7.22
2017-10-20T22:15:52.421Z,23.25
2017-10-20T22:18:21.864Z,6.28
2017-10-20T22:20:51.259Z,6.47
2017-10-20T22:23:21.323Z,11.10
2017-10-20T22:25:50.855Z,9.15
2017-10-20T22:28:20.306Z,7.65
2017-10-20T22:30:50.953Z,5.00
2017-10-20T22:33:19.966Z,8.10
2017-10-20T22:35:49.369Z,12.02
2017-10-20T22:38:19.078Z,10.93
2017-10-20T22:40:46.686Z,6.85
2017-10-20T22:43:17.287Z,4.60
2017-10-20T22:45:47.083Z,8.27
2017-10-20T22:48:14.709Z,5.82
2017-10-20T22:50:43.051Z,10.77
2017-10-20T22:53:10.688Z,13.60
2017-10-20T22:55:38.268Z,4.37
2017-10-20T22:58:05.850Z,4.60
2017-10-20T23:00:34.256Z,5.97
2017-10-20T23:03:01.843Z,5.12
2017-10-20T23:05:29.476Z,4.15
2017-10-20T23:07:57.069Z,6.10
2017-10-20T23:10:24.631Z,8.13
2017-10-20T23:12:52.260Z,5.50
2017-10-20T23:15:19.920Z,3.58
2017-10-20T23:17:47.499Z,11.90
2017-10-20T23:20:15.089Z,6.85
2017-10-20T23:22:42.817Z,3.97
2017-10-20T23:25:10.398Z,5.68
2017-10-20T23:27:37.987Z,8.85
2017-10-20T23:30:05.595Z,18.27
2017-10-20T23:32:33.192Z,7.40
2017-10-20T23:35:00.823Z,5.37
2017-10-20T23:37:28.443Z,5.05
2017-10-20T23:39:56.089Z,8.00
2017-10-20T23:42:23.720Z,4.78
2017-10-20T23:44:51.308Z,3.05
2017-10-20T23:47:18.903Z,6.45
2017-10-20T23:49:47.289Z,12.10
2017-10-20T23:52:15.624Z,8.80
2017-10-20T23:54:43.260Z,29.45
2017-10-20T23:57:10.850Z,8.52
2017-10-20T23:59:38.471Z,5.53
